AKJ2524 VOMM-VOMM
Flight info
| Callsign | AKJ2524 |
|---|---|
| Flight time | 0h 23m |
| Altitude | 1500 |
| Route | MMV CIRCUITS AND LANDINGS VISUAL PATTERN |
| Aircraft | B38M/M-V/N |
Departure
| Time | 2026-04-28 07:42 |
|---|---|
| Airport | Chennai International Airport (VOMM) |
Arrival
| Time | 2026-04-28 08:05 |
|---|---|
| Airport | Chennai International Airport (VOMM) |
| Time | Latitude | Longitude | Altitude | Speed | Heading |
|---|---|---|---|---|---|
| 2026-04-28 07:12 | 12.98603 | 80.16605 | 58 ft | 0 kts | 339° |
| 2026-04-28 07:32 | 12.98596 | 80.16608 | 51 ft | 4 kts | 339° |
| 2026-04-28 07:32 | 12.98566 | 80.16619 | 53 ft | 8 kts | 339° |
| 2026-04-28 07:32 | 12.98587 | 80.16611 | 52 ft | 1 kts | 339° |
| 2026-04-28 07:33 | 12.98592 | 80.16609 | 50 ft | 4 kts | 337° |
| 2026-04-28 07:33 | 12.98553 | 80.16612 | 50 ft | 18 kts | 19° |
| 2026-04-28 07:33 | 12.98526 | 80.16547 | 54 ft | 10 kts | 105° |
| 2026-04-28 07:34 | 12.98529 | 80.16601 | 57 ft | 0 kts | 68° |
| 2026-04-28 07:35 | 12.98534 | 80.16615 | 55 ft | 7 kts | 68° |
| 2026-04-28 07:36 | 12.98569 | 80.16704 | 55 ft | 20 kts | 70° |
| 2026-04-28 07:36 | 12.98666 | 80.16756 | 53 ft | 17 kts | 342° |
| 2026-04-28 07:36 | 12.98766 | 80.16764 | 56 ft | 16 kts | 64° |
| 2026-04-28 07:36 | 12.98808 | 80.16875 | 52 ft | 17 kts | 68° |
| 2026-04-28 07:37 | 12.98854 | 80.16993 | 52 ft | 19 kts | 69° |
| 2026-04-28 07:37 | 12.98901 | 80.17120 | 54 ft | 19 kts | 69° |
| 2026-04-28 07:37 | 12.98957 | 80.17250 | 53 ft | 20 kts | 60° |
| 2026-04-28 07:37 | 12.99016 | 80.17387 | 56 ft | 21 kts | 69° |
| 2026-04-28 07:38 | 12.99069 | 80.17531 | 57 ft | 22 kts | 69° |
| 2026-04-28 07:38 | 12.99127 | 80.17679 | 55 ft | 23 kts | 58° |
| 2026-04-28 07:38 | 12.99202 | 80.17694 | 59 ft | 0 kts | 322° |
| 2026-04-28 07:38 | 12.99203 | 80.17693 | 59 ft | 0 kts | 325° |
| 2026-04-28 07:39 | 12.99204 | 80.17692 | 53 ft | 0 kts | 325° |
| 2026-04-28 07:39 | 12.99206 | 80.17691 | 53 ft | 0 kts | 325° |
| 2026-04-28 07:39 | 12.99209 | 80.17688 | 53 ft | 1 kts | 325° |
| 2026-04-28 07:40 | 12.99215 | 80.17685 | 55 ft | 1 kts | 332° |
| 2026-04-28 07:40 | 12.99219 | 80.17683 | 57 ft | 3 kts | 333° |
| 2026-04-28 07:40 | 12.99274 | 80.17658 | 59 ft | 11 kts | 323° |
| 2026-04-28 07:40 | 12.99275 | 80.17580 | 54 ft | 12 kts | 249° |
| 2026-04-28 07:41 | 12.99238 | 80.17487 | 57 ft | 17 kts | 248° |
| 2026-04-28 07:41 | 12.99117 | 80.17172 | 53 ft | 86 kts | 252° |
| 2026-04-28 07:41 | 12.98819 | 80.16372 | 57 ft | 152 kts | 249° |
| 2026-04-28 07:41 | 12.98406 | 80.15186 | 237 ft | 190 kts | 248° |
| 2026-04-28 07:42 | 12.97997 | 80.13901 | 930 ft | 185 kts | 251° |
| 2026-04-28 07:42 | 12.97651 | 80.12613 | 626 ft | 191 kts | 250° |
| 2026-04-28 07:42 | 12.97262 | 80.11287 | 928 ft | 198 kts | 250° |
| 2026-04-28 07:42 | 12.96829 | 80.09928 | 1527 ft | 206 kts | 250° |
| 2026-04-28 07:43 | 12.96382 | 80.08514 | 1525 ft | 208 kts | 251° |
| 2026-04-28 07:43 | 12.96070 | 80.07047 | 1360 ft | 212 kts | 265° |
| 2026-04-28 07:43 | 12.96465 | 80.05580 | 1367 ft | 225 kts | 304° |
| 2026-04-28 07:43 | 12.97856 | 80.04755 | 1531 ft | 234 kts | 353° |
| 2026-04-28 07:44 | 12.98896 | 80.04795 | 1435 ft | 230 kts | 11° |
| 2026-04-28 07:44 | 13.00360 | 80.05421 | 1305 ft | 223 kts | 37° |
| 2026-04-28 07:44 | 13.01378 | 80.06550 | 1091 ft | 218 kts | 60° |
| 2026-04-28 07:44 | 13.02174 | 80.07847 | 1474 ft | 213 kts | 60° |
| 2026-04-28 07:45 | 13.02894 | 80.09145 | 1572 ft | 207 kts | 69° |
| 2026-04-28 07:45 | 13.03394 | 80.10530 | 1371 ft | 207 kts | 73° |
| 2026-04-28 07:45 | 13.03842 | 80.11964 | 1435 ft | 207 kts | 75° |
| 2026-04-28 07:45 | 13.04278 | 80.13385 | 1592 ft | 216 kts | 73° |
| 2026-04-28 07:46 | 13.04719 | 80.14863 | 1643 ft | 221 kts | 78° |
| 2026-04-28 07:46 | 13.05155 | 80.16406 | 1425 ft | 228 kts | 76° |
| 2026-04-28 07:46 | 13.05601 | 80.17937 | 1458 ft | 216 kts | 79° |
| 2026-04-28 07:46 | 13.05995 | 80.19338 | 1461 ft | 191 kts | 76° |
| 2026-04-28 07:47 | 13.06329 | 80.20623 | 1361 ft | 187 kts | 78° |
| 2026-04-28 07:47 | 13.06630 | 80.21933 | 1266 ft | 193 kts | 81° |
| 2026-04-28 07:47 | 13.06712 | 80.23289 | 1215 ft | 190 kts | 104° |
| 2026-04-28 07:47 | 13.06078 | 80.24425 | 888 ft | 183 kts | 144° |
| 2026-04-28 07:48 | 13.04993 | 80.24815 | 700 ft | 157 kts | 175° |
| 2026-04-28 07:48 | 13.03912 | 80.24823 | 526 ft | 157 kts | 181° |
| 2026-04-28 07:48 | 13.02846 | 80.24559 | 533 ft | 164 kts | 200° |
| 2026-04-28 07:48 | 13.02000 | 80.23845 | 680 ft | 152 kts | 224° |
| 2026-04-28 07:49 | 13.01306 | 80.23038 | 347 ft | 154 kts | 231° |
| 2026-04-28 07:49 | 13.00821 | 80.21965 | 729 ft | 171 kts | 244° |
| 2026-04-28 07:49 | 13.00445 | 80.20742 | 621 ft | 183 kts | 247° |
| 2026-04-28 07:49 | 13.00065 | 80.19555 | 392 ft | 169 kts | 241° |
| 2026-04-28 07:50 | 12.99600 | 80.18505 | 70 ft | 156 kts | 244° |
| 2026-04-28 07:50 | 12.99222 | 80.17487 | 58 ft | 155 kts | 250° |
| 2026-04-28 07:50 | 12.98778 | 80.16276 | 94 ft | 205 kts | 248° |
| 2026-04-28 07:50 | 12.98294 | 80.14797 | 523 ft | 226 kts | 250° |
| 2026-04-28 07:51 | 12.97843 | 80.13309 | 1568 ft | 210 kts | 249° |
| 2026-04-28 07:51 | 12.97493 | 80.11883 | 1631 ft | 208 kts | 260° |
| 2026-04-28 07:51 | 12.97682 | 80.10411 | 1357 ft | 216 kts | 288° |
| 2026-04-28 07:51 | 12.98522 | 80.09133 | 1468 ft | 212 kts | 313° |
| 2026-04-28 07:52 | 12.99713 | 80.08299 | 1394 ft | 207 kts | 336° |
| 2026-04-28 07:52 | 13.01104 | 80.08054 | 1343 ft | 210 kts | 9° |
| 2026-04-28 07:52 | 13.02419 | 80.08665 | 1500 ft | 210 kts | 47° |
| 2026-04-28 07:52 | 13.03156 | 80.09889 | 1464 ft | 198 kts | 75° |
| 2026-04-28 07:53 | 13.03553 | 80.11212 | 1413 ft | 192 kts | 79° |
| 2026-04-28 07:53 | 13.03854 | 80.12525 | 1416 ft | 186 kts | 80° |
| 2026-04-28 07:53 | 13.04036 | 80.13823 | 1339 ft | 187 kts | 85° |
| 2026-04-28 07:53 | 13.04181 | 80.15196 | 1586 ft | 200 kts | 85° |
| 2026-04-28 07:54 | 13.04538 | 80.16603 | 1486 ft | 203 kts | 78° |
| 2026-04-28 07:54 | 13.04927 | 80.17942 | 1572 ft | 192 kts | 80° |
| 2026-04-28 07:54 | 13.05316 | 80.19250 | 1476 ft | 191 kts | 76° |
| 2026-04-28 07:54 | 13.05701 | 80.20521 | 1456 ft | 188 kts | 79° |
| 2026-04-28 07:55 | 13.06055 | 80.21785 | 1417 ft | 177 kts | 77° |
| 2026-04-28 07:55 | 13.06233 | 80.23002 | 1314 ft | 168 kts | 97° |
| 2026-04-28 07:55 | 13.05966 | 80.24101 | 1240 ft | 152 kts | 121° |
| 2026-04-28 07:55 | 13.05218 | 80.24865 | 1147 ft | 154 kts | 160° |
| 2026-04-28 07:56 | 13.04176 | 80.24964 | 1147 ft | 147 kts | 179° |
| 2026-04-28 07:56 | 13.03170 | 80.24971 | 1151 ft | 144 kts | 180° |
| 2026-04-28 07:56 | 13.02160 | 80.24706 | 874 ft | 155 kts | 206° |
| 2026-04-28 07:56 | 13.01391 | 80.23971 | 659 ft | 150 kts | 236° |
| 2026-04-28 07:57 | 13.01067 | 80.22894 | 459 ft | 173 kts | 254° |
| 2026-04-28 07:57 | 13.00673 | 80.21681 | 706 ft | 185 kts | 249° |
| 2026-04-28 07:57 | 13.00427 | 80.20391 | 545 ft | 182 kts | 252° |
| 2026-04-28 07:57 | 12.99994 | 80.19258 | 308 ft | 158 kts | 233° |
| 2026-04-28 07:58 | 12.99540 | 80.18305 | 60 ft | 142 kts | 245° |
| 2026-04-28 07:58 | 12.99217 | 80.17434 | 55 ft | 125 kts | 249° |
| 2026-04-28 07:58 | 12.98822 | 80.16408 | 73 ft | 182 kts | 249° |
| 2026-04-28 07:58 | 12.98396 | 80.15077 | 596 ft | 201 kts | 248° |
| 2026-04-28 07:59 | 12.97974 | 80.13706 | 1341 ft | 208 kts | 256° |
| 2026-04-28 07:59 | 12.98026 | 80.12208 | 1336 ft | 211 kts | 288° |
| 2026-04-28 07:59 | 12.98765 | 80.10985 | 1372 ft | 197 kts | 314° |
| 2026-04-28 07:59 | 12.99986 | 80.10249 | 1279 ft | 213 kts | 346° |
| 2026-04-28 08:00 | 13.01406 | 80.10074 | 1523 ft | 207 kts | 11° |
| 2026-04-28 08:00 | 13.02621 | 80.10725 | 1451 ft | 200 kts | 53° |
| 2026-04-28 08:00 | 13.03205 | 80.11944 | 1482 ft | 184 kts | 75° |
| 2026-04-28 08:00 | 13.03587 | 80.13245 | 1592 ft | 195 kts | 82° |
| 2026-04-28 08:01 | 13.03878 | 80.14619 | 1729 ft | 198 kts | 81° |
| 2026-04-28 08:01 | 13.04229 | 80.15993 | 1632 ft | 200 kts | 76° |
| 2026-04-28 08:01 | 13.04675 | 80.17348 | 1558 ft | 197 kts | 73° |
| 2026-04-28 08:01 | 13.05132 | 80.18648 | 1394 ft | 193 kts | 77° |
| 2026-04-28 08:02 | 13.05524 | 80.19932 | 1355 ft | 182 kts | 79° |
| 2026-04-28 08:02 | 13.05834 | 80.21159 | 1248 ft | 180 kts | 80° |
| 2026-04-28 08:02 | 13.05915 | 80.22408 | 1255 ft | 170 kts | 110° |
| 2026-04-28 08:02 | 13.05270 | 80.23319 | 1287 ft | 159 kts | 149° |
| 2026-04-28 08:03 | 13.04255 | 80.23666 | 1306 ft | 152 kts | 178° |
| 2026-04-28 08:03 | 13.03224 | 80.23428 | 1255 ft | 159 kts | 206° |
| 2026-04-28 08:03 | 13.02264 | 80.22829 | 1175 ft | 164 kts | 216° |
| 2026-04-28 08:03 | 13.01397 | 80.22082 | 984 ft | 163 kts | 225° |
| 2026-04-28 08:04 | 13.00684 | 80.21181 | 730 ft | 163 kts | 237° |
| 2026-04-28 08:04 | 13.00208 | 80.20146 | 482 ft | 161 kts | 252° |
| 2026-04-28 08:04 | 12.99847 | 80.19069 | 234 ft | 159 kts | 251° |
| 2026-04-28 08:04 | 12.99439 | 80.18027 | 64 ft | 154 kts | 250° |
| 2026-04-28 08:05 | 12.99125 | 80.17185 | 54 ft | 96 kts | 250° |
| 2026-04-28 08:05 | 12.98934 | 80.16673 | 58 ft | 68 kts | 249° |
| 2026-04-28 08:05 | 12.98736 | 80.16348 | 57 ft | 48 kts | 217° |
| 2026-04-28 08:05 | 12.98612 | 80.16334 | 55 ft | 13 kts | 95° |
| 2026-04-28 08:06 | 12.98638 | 80.16422 | 53 ft | 14 kts | 69° |
| 2026-04-28 08:06 | 12.98674 | 80.16516 | 57 ft | 15 kts | 69° |
| 2026-04-28 08:06 | 12.98712 | 80.16619 | 55 ft | 16 kts | 69° |
| 2026-04-28 08:06 | 12.98721 | 80.16726 | 52 ft | 16 kts | 139° |
| 2026-04-28 08:07 | 12.98618 | 80.16766 | 53 ft | 16 kts | 185° |
| 2026-04-28 08:07 | 12.98598 | 80.16695 | 53 ft | 11 kts | 314° |
| 2026-04-28 08:07 | 12.98625 | 80.16682 | 55 ft | 0 kts | 339° |